Master Jet — 5BKD3 — position and weather

sailwx.info

Track history (hours):
 
Tides and Currents Weather Stations Pressure Air Temp Water Temp Dewpoint Dewpoint Depression Visibility Wind Speed Wind Dir Waves Ship Positions

Master Jet

Last reported at 2014-Jul-23 11:32 UTC. Time now 2014-Jul-23 11:55 UTC.
Position N 36°23' E 025°26'.

Length 74 m; draft 2.9 m.

Type: Ship. MMSI: 209349000.

Date/timePositionNaut miles runAvg speedWind from/ knotsBaromVisibWave heightAir tempDewpointWater temp
2014-Jul-23 11:32N 36°23' E 025°26'1414.5
2014-Jul-23 10:34N 36°37' E 025°23'2726.1
2014-Jul-23 09:33N 37°03' E 025°18'1515.1
2014-Jul-23 08:34N 37°18' E 025°19'1211.9
2014-Jul-23 07:34N 37°30' E 025°14'2827.6
2014-Jul-23 06:33N 37°32' E 024°40'2826.5
2014-Jul-23 05:30N 37°35' E 024°04'2425.6
2014-Jul-23 04:33N 37°47' E 023°38'10 2.4
2014-Jul-23 00:33N 37°57' E 023°39'0 0.0
2014-Jul-22 23:33N 37°57' E 023°39'0 0.0
2014-Jul-22 22:33N 37°57' E 023°39'0 0.0
2014-Jul-22 21:33N 37°57' E 023°39'0 0.0
2014-Jul-22 20:33N 37°57' E 023°39'0 0.0
2014-Jul-22 19:33N 37°57' E 023°39'1 1.5
2014-Jul-22 18:34N 37°55' E 023°37'2825.2
2014-Jul-22 17:28N 37°36' E 024°02'2527.0
2014-Jul-22 16:33N 37°31' E 024°33'2727.5
2014-Jul-22 15:34N 37°29' E 025°07'1313.0
2014-Jul-22 14:33N 37°20' E 025°18'1918.9
2014-Jul-22 13:33N 37°01' E 025°18'1918.6
2014-Jul-22 12:33N 36°42' E 025°16'2120.6
2014-Jul-22 11:33N 36°23' E 025°26'7 7.3
2014-Jul-22 10:33N 36°27' E 025°18'2726.6
2014-Jul-22 09:32N 36°54' E 025°16'1818.2
2014-Jul-22 08:34N 37°12' E 025°20'1616.2
2014-Jul-22 07:33N 37°28' E 025°18'2828.0
2014-Jul-22 06:33N 37°31' E 024°43'2828.0
2014-Jul-22 05:32N 37°34' E 024°07'2626.7
2014-Jul-22 04:33N 37°47' E 023°39'9 9.5
2014-Jul-22 03:34N 37°57' E 023°39'0 0.0
2014-Jul-22 02:34N 37°57' E 023°39'0 0.0
2014-Jul-22 01:33N 37°57' E 023°39'0 0.0
2014-Jul-22 00:33N 37°57' E 023°39'0 0.0
2014-Jul-21 23:34N 37°57' E 023°39'0 0.0
2014-Jul-21 22:34N 37°57' E 023°39'0 0.0
2014-Jul-21 21:34N 37°57' E 023°39'0 0.0
2014-Jul-21 20:34N 37°57' E 023°39'0 0.0
2014-Jul-21 20:18N 37°57' E 023°39'0 0.2
2014-Jul-21 19:34N 37°57' E 023°38'3222.5
2014-Jul-21 18:08N 37°34' E 024°07'1627.1
2014-Jul-21 17:33N 37°31' E 024°27'2625.9
2014-Jul-21 16:32N 37°31' E 025°00'1515.5
2014-Jul-21 15:33N 37°28' E 025°19'2221.8
2014-Jul-21 14:33N 37°06' E 025°22'1515.1
2014-Jul-21 13:33N 36°52' E 025°15'1514.8
2014-Jul-21 12:33N 36°38' E 025°16'1614.6
2014-Jul-21 11:26N 36°23' E 025°26'1921.9
2014-Jul-21 10:34N 36°41' E 025°15'2626.3
2014-Jul-21 09:33N 37°06' E 025°21'1616.3
2014-Jul-21 08:34N 37°22' E 025°17'1211.7
2014-Jul-21 07:33N 37°31' E 025°06'2726.9
2014-Jul-21 06:32N 37°31' E 024°32'4522.8
2014-Jul-21 04:33N 37°47' E 023°38'3 0.3
2014-Jul-20 19:33N 37°50' E 023°40'7123.8
2014-Jul-20 16:34N 37°31' E 025°08'1111.0
2014-Jul-20 15:33N 37°23' E 025°17'1817.6
2014-Jul-20 14:33N 37°06' E 025°22'2222.0
2014-Jul-20 13:33N 36°45' E 025°14'1515.4
2014-Jul-20 12:33N 36°30' E 025°18'9 8.9
2014-Jul-20 11:33N 36°23' E 025°24'2525.4
2014-Jul-20 10:33N 36°47' E 025°15'2020.2
2014-Jul-20 09:33N 37°06' E 025°22'1616.0
2014-Jul-20 08:33N 37°22' E 025°18'9 8.9
2014-Jul-20 07:33N 37°29' E 025°12'2727.0
2014-Jul-20 06:33N 37°31' E 024°38'11 0.9
2014-Jul-19 18:13N 37°31' E 024°23'1928.4
2014-Jul-19 17:33N 37°31' E 024°47'2625.9
2014-Jul-19 16:33N 37°28' E 025°19'2019.8
2014-Jul-19 15:33N 37°08' E 025°21'1515.0
2014-Jul-19 14:33N 36°54' E 025°16'1817.9
2014-Jul-19 13:34N 36°36' E 025°17'1514.5
2014-Jul-19 12:33N 36°23' E 025°26'2221.6
2014-Jul-19 11:34N 36°43' E 025°14'2524.6
2014-Jul-19 10:33N 37°06' E 025°22'2121.2
2014-Jul-19 09:33N 37°27' E 025°18'1313.3
2014-Jul-19 08:33N 37°31' E 025°02'2727.1
2014-Jul-19 07:33N 37°31' E 024°28'2726.5
2014-Jul-19 06:33N 37°37' E 023°55'2121.2
2014-Jul-19 05:33N 37°53' E 023°37'4 4.1
2014-Jul-19 04:33N 37°57' E 023°39'1 1.3
2014-Jul-19 03:33N 37°56' E 023°37'3 3.0
2014-Jul-19 02:33N 37°58' E 023°33'0 0.0
2014-Jul-19 01:33N 37°58' E 023°33'0 0.0
2014-Jul-19 00:33N 37°58' E 023°33'0 0.0
2014-Jul-18 23:33N 37°58' E 023°33'0 0.0
2014-Jul-18 22:33N 37°58' E 023°33'0 0.0
2014-Jul-18 21:33N 37°58' E 023°33'0 0.0
2014-Jul-18 20:33N 37°58' E 023°33'0 0.0
2014-Jul-18 19:33N 37°58' E 023°33'0 0.0
2014-Jul-18 18:33N 37°58' E 023°33'0 0.0
2014-Jul-18 16:31N 37°58' E 023°33'0 0.0
2014-Jul-18 15:33N 37°58' E 023°33'0 0.0
2014-Jul-18 12:09N 37°58' E 023°33'0 0.0
2014-Jul-18 11:34N 37°58' E 023°33'0 0.0
2014-Jul-18 10:33N 37°58' E 023°33'0 0.0
2014-Jul-18 09:33N 37°58' E 023°33'0 0.0
2014-Jul-17 23:33N 37°58' E 023°33'0 0.0
2014-Jul-17 22:33N 37°58' E 023°33'0 0.0
2014-Jul-17 21:33N 37°58' E 023°33'0 0.0
2014-Jul-17 20:33N 37°58' E 023°33'4 3.6
2014-Jul-17 19:33N 37°55' E 023°36'1211.7
2014-Jul-17 18:33N 37°45' E 023°43'6622.0
2014-Jul-17 15:33N 36°55' E 024°38'2222.1
2014-Jul-17 14:33N 36°39' E 024°57'2221.9
2014-Jul-17 13:33N 36°25' E 025°18'2 1.8
2014-Jul-17 12:31N 36°24' E 025°20'2021.0
2014-Jul-17 11:33N 36°44' E 025°14'2121.3
2014-Jul-17 10:33N 37°05' E 025°19'1313.2
2014-Jul-17 09:34N 37°18' E 025°19'1010.3
2014-Jul-17 08:33N 37°28' E 025°18'2221.0
2014-Jul-17 07:29N 37°32' E 024°50'2221.6
2014-Jul-17 06:30N 37°31' E 024°23'4020.5
2014-Jul-17 04:33N 37°48' E 023°38'8 8.3
2014-Jul-17 03:33N 37°57' E 023°39'0 0.0
2014-Jul-17 02:33N 37°57' E 023°39'0 0.0
2014-Jul-17 01:33N 37°57' E 023°39'0 0.0
2014-Jul-17 00:33N 37°57' E 023°39'0 0.0
2014-Jul-16 23:34N 37°57' E 023°39'0 0.0
2014-Jul-16 22:33N 37°57' E 023°39'0 0.0
2014-Jul-16 21:33N 37°57' E 023°39'1414.4
2014-Jul-16 20:34N 37°43' E 023°45'3222.0
2014-Jul-16 19:05N 37°31' E 024°23'1522.1
2014-Jul-16 18:23N 37°31' E 024°42'1822.0
2014-Jul-16 17:33N 37°30' E 025°05'1111.2
2014-Jul-16 16:33N 37°24' E 025°17'1817.9
2014-Jul-16 15:34N 37°06' E 025°22'1919.1
2014-Jul-16 14:33N 36°48' E 025°15'2222.0
2014-Jul-16 13:33N 36°26' E 025°19'4 3.9
2014-Jul-16 12:33N 36°24' E 025°22'2120.9
2014-Jul-16 11:34N 36°43' E 025°14'2221.8
2014-Jul-16 10:33N 37°05' E 025°19'1212.0
2014-Jul-16 09:33N 37°17' E 025°19'1111.1
2014-Jul-16 08:33N 37°28' E 025°19'2421.3
2014-Jul-16 07:26N 37°31' E 024°49'2521.9
2014-Jul-16 06:17N 37°31' E 024°17'3620.9
2014-Jul-16 04:34N 37°49' E 023°37'8 7.7
2014-Jul-16 03:33N 37°57' E 023°39'0 0.0
2014-Jul-16 02:33N 37°57' E 023°39'0 0.0
2014-Jul-16 01:33N 37°57' E 023°39'0 0.0
2014-Jul-16 00:33N 37°57' E 023°39'0 0.0
2014-Jul-15 23:32N 37°57' E 023°39'0 0.0
2014-Jul-15 22:33N 37°57' E 023°39'0 0.0
2014-Jul-15 21:33N 37°57' E 023°39'0 0.0
2014-Jul-15 20:33N 37°57' E 023°39'3 3.4
2014-Jul-15 19:33N 37°53' E 023°38'4320.9
2014-Jul-15 17:31N 37°31' E 024°24'2624.3
2014-Jul-15 16:27N 37°31' E 024°57'1820.3
2014-Jul-15 15:34N 37°28' E 025°19'2121.3
2014-Jul-15 14:33N 37°07' E 025°22'1110.7
2014-Jul-15 13:33N 36°57' E 025°16'1515.3
2014-Jul-15 12:33N 36°42' E 025°16'2019.9
2014-Jul-15 11:33N 36°23' E 025°26'1413.9
2014-Jul-15 10:33N 36°35' E 025°17'2626.4
2014-Jul-15 09:33N 37°02' E 025°18'1817.7
2014-Jul-15 08:33N 37°19' E 025°18'1212.5
2014-Jul-15 07:33N 37°30' E 025°10'2726.8
2014-Jul-15 06:33N 37°32' E 024°36'3926.3
2014-Jul-15 05:03N 37°39' E 023°47'1224.9
2014-Jul-15 04:34N 37°49' E 023°38'8 8.1
2014-Jul-15 03:34N 37°57' E 023°39'0 0.0
2014-Jul-15 02:34N 37°57' E 023°39'0 0.0
2014-Jul-15 01:34N 37°57' E 023°39'0 0.0
2014-Jul-15 00:34N 37°57' E 023°39'0 0.0
2014-Jul-14 23:34N 37°57' E 023°39'0 0.0
2014-Jul-14 22:34N 37°57' E 023°39'0 0.0
2014-Jul-14 21:34N 37°57' E 023°39'1 1.4
2014-Jul-14 20:33N 37°56' E 023°37'2018.5
2014-Jul-14 19:30N 37°39' E 023°51'3718.7
2014-Jul-14 17:32N 37°31' E 024°37'2020.1
2014-Jul-14 16:33N 37°30' E 025°02'1313.4
2014-Jul-14 15:33N 37°27' E 025°18'2019.9
2014-Jul-14 14:33N 37°08' E 025°22'1818.4
2014-Jul-14 13:33N 36°50' E 025°15'1919.0
2014-Jul-14 12:34N 36°31' E 025°17'9 8.6
2014-Jul-14 11:33N 36°23' E 025°22'2424.1
2014-Jul-14 10:34N 36°47' E 025°15'2120.4
2014-Jul-14 09:33N 37°06' E 025°22'2221.7
2014-Jul-14 08:33N 37°28' E 025°19'9 9.0
2014-Jul-14 07:33N 37°32' E 025°09'2525.0
2014-Jul-14 06:33N 37°32' E 024°38'2625.8
2014-Jul-14 05:32N 37°35' E 024°05'2525.0
2014-Jul-14 04:33N 37°47' E 023°38'3 0.4
2014-Jul-13 19:33N 37°46' E 023°42'4924.5
2014-Jul-13 17:32N 37°31' E 024°41'2626.0
2014-Jul-13 16:33N 37°28' E 025°14'1111.7
2014-Jul-13 15:34N 37°18' E 025°19'1716.5
2014-Jul-13 14:33N 37°01' E 025°18'1817.8
2014-Jul-13 13:33N 36°43' E 025°16'2221.5
2014-Jul-13 12:33N 36°23' E 025°26'1413.5
2014-Jul-13 11:33N 36°35' E 025°18'  
Track history (hours):
 
Tides and Currents Weather Stations Pressure Air Temp Water Temp Dewpoint Dewpoint Depression Visibility Wind Speed Wind Dir Waves Ship Positions

Master Jet

Last reported at 2014-Jul-23 11:32 UTC. Time now 2014-Jul-23 11:55 UTC.
Position N 36°23' E 025°26'.

Length 74 m; draft 2.9 m.

Type: Ship. MMSI: 209349000.

Date/timePositionNaut miles runAvg speedWind from/ knotsBaromVisibWave heightAir tempDewpointWater temp
2014-Jul-23 11:32N 36°23' E 025°26'1414.5
2014-Jul-23 10:34N 36°37' E 025°23'2726.1
2014-Jul-23 09:33N 37°03' E 025°18'1515.1
2014-Jul-23 08:34N 37°18' E 025°19'1211.9
2014-Jul-23 07:34N 37°30' E 025°14'2827.6
2014-Jul-23 06:33N 37°32' E 024°40'2826.5
2014-Jul-23 05:30N 37°35' E 024°04'2425.6
2014-Jul-23 04:33N 37°47' E 023°38'10 2.4
2014-Jul-23 00:33N 37°57' E 023°39'0 0.0
2014-Jul-22 23:33N 37°57' E 023°39'0 0.0
2014-Jul-22 22:33N 37°57' E 023°39'0 0.0
2014-Jul-22 21:33N 37°57' E 023°39'0 0.0
2014-Jul-22 20:33N 37°57' E 023°39'0 0.0
2014-Jul-22 19:33N 37°57' E 023°39'1 1.5
2014-Jul-22 18:34N 37°55' E 023°37'2825.2
2014-Jul-22 17:28N 37°36' E 024°02'2527.0
2014-Jul-22 16:33N 37°31' E 024°33'2727.5
2014-Jul-22 15:34N 37°29' E 025°07'1313.0
2014-Jul-22 14:33N 37°20' E 025°18'1918.9
2014-Jul-22 13:33N 37°01' E 025°18'1918.6
2014-Jul-22 12:33N 36°42' E 025°16'2120.6
2014-Jul-22 11:33N 36°23' E 025°26'7 7.3
2014-Jul-22 10:33N 36°27' E 025°18'2726.6
2014-Jul-22 09:32N 36°54' E 025°16'1818.2
2014-Jul-22 08:34N 37°12' E 025°20'1616.2
2014-Jul-22 07:33N 37°28' E 025°18'2828.0
2014-Jul-22 06:33N 37°31' E 024°43'2828.0
2014-Jul-22 05:32N 37°34' E 024°07'2626.7
2014-Jul-22 04:33N 37°47' E 023°39'9 9.5
2014-Jul-22 03:34N 37°57' E 023°39'0 0.0
2014-Jul-22 02:34N 37°57' E 023°39'0 0.0
2014-Jul-22 01:33N 37°57' E 023°39'0 0.0
2014-Jul-22 00:33N 37°57' E 023°39'0 0.0
2014-Jul-21 23:34N 37°57' E 023°39'0 0.0
2014-Jul-21 22:34N 37°57' E 023°39'0 0.0
2014-Jul-21 21:34N 37°57' E 023°39'0 0.0
2014-Jul-21 20:34N 37°57' E 023°39'0 0.0
2014-Jul-21 20:18N 37°57' E 023°39'0 0.2
2014-Jul-21 19:34N 37°57' E 023°38'3222.5
2014-Jul-21 18:08N 37°34' E 024°07'1627.1
2014-Jul-21 17:33N 37°31' E 024°27'2625.9
2014-Jul-21 16:32N 37°31' E 025°00'1515.5
2014-Jul-21 15:33N 37°28' E 025°19'2221.8
2014-Jul-21 14:33N 37°06' E 025°22'1515.1
2014-Jul-21 13:33N 36°52' E 025°15'1514.8
2014-Jul-21 12:33N 36°38' E 025°16'1614.6
2014-Jul-21 11:26N 36°23' E 025°26'1921.9
2014-Jul-21 10:34N 36°41' E 025°15'2626.3
2014-Jul-21 09:33N 37°06' E 025°21'1616.3
2014-Jul-21 08:34N 37°22' E 025°17'1211.7
2014-Jul-21 07:33N 37°31' E 025°06'2726.9
2014-Jul-21 06:32N 37°31' E 024°32'4522.8
2014-Jul-21 04:33N 37°47' E 023°38'3 0.3
2014-Jul-20 19:33N 37°50' E 023°40'7123.8
2014-Jul-20 16:34N 37°31' E 025°08'1111.0
2014-Jul-20 15:33N 37°23' E 025°17'1817.6
2014-Jul-20 14:33N 37°06' E 025°22'2222.0
2014-Jul-20 13:33N 36°45' E 025°14'1515.4
2014-Jul-20 12:33N 36°30' E 025°18'9 8.9
2014-Jul-20 11:33N 36°23' E 025°24'2525.4
2014-Jul-20 10:33N 36°47' E 025°15'2020.2
2014-Jul-20 09:33N 37°06' E 025°22'1616.0
2014-Jul-20 08:33N 37°22' E 025°18'9 8.9
2014-Jul-20 07:33N 37°29' E 025°12'2727.0
2014-Jul-20 06:33N 37°31' E 024°38'11 0.9
2014-Jul-19 18:13N 37°31' E 024°23'1928.4
2014-Jul-19 17:33N 37°31' E 024°47'2625.9
2014-Jul-19 16:33N 37°28' E 025°19'2019.8
2014-Jul-19 15:33N 37°08' E 025°21'1515.0
2014-Jul-19 14:33N 36°54' E 025°16'1817.9
2014-Jul-19 13:34N 36°36' E 025°17'1514.5
2014-Jul-19 12:33N 36°23' E 025°26'2221.6
2014-Jul-19 11:34N 36°43' E 025°14'2524.6
2014-Jul-19 10:33N 37°06' E 025°22'2121.2
2014-Jul-19 09:33N 37°27' E 025°18'1313.3
2014-Jul-19 08:33N 37°31' E 025°02'2727.1
2014-Jul-19 07:33N 37°31' E 024°28'2726.5
2014-Jul-19 06:33N 37°37' E 023°55'2121.2
2014-Jul-19 05:33N 37°53' E 023°37'4 4.1
2014-Jul-19 04:33N 37°57' E 023°39'1 1.3
2014-Jul-19 03:33N 37°56' E 023°37'3 3.0
2014-Jul-19 02:33N 37°58' E 023°33'0 0.0
2014-Jul-19 01:33N 37°58' E 023°33'0 0.0
2014-Jul-19 00:33N 37°58' E 023°33'0 0.0
2014-Jul-18 23:33N 37°58' E 023°33'0 0.0
2014-Jul-18 22:33N 37°58' E 023°33'0 0.0
2014-Jul-18 21:33N 37°58' E 023°33'0 0.0
2014-Jul-18 20:33N 37°58' E 023°33'0 0.0
2014-Jul-18 19:33N 37°58' E 023°33'0 0.0
2014-Jul-18 18:33N 37°58' E 023°33'0 0.0
2014-Jul-18 16:31N 37°58' E 023°33'0 0.0
2014-Jul-18 15:33N 37°58' E 023°33'0 0.0
2014-Jul-18 12:09N 37°58' E 023°33'0 0.0
2014-Jul-18 11:34N 37°58' E 023°33'0 0.0
2014-Jul-18 10:33N 37°58' E 023°33'0 0.0
2014-Jul-18 09:33N 37°58' E 023°33'0 0.0
2014-Jul-17 23:33N 37°58' E 023°33'0 0.0
2014-Jul-17 22:33N 37°58' E 023°33'0 0.0
2014-Jul-17 21:33N 37°58' E 023°33'0 0.0
2014-Jul-17 20:33N 37°58' E 023°33'4 3.6
2014-Jul-17 19:33N 37°55' E 023°36'1211.7
2014-Jul-17 18:33N 37°45' E 023°43'6622.0
2014-Jul-17 15:33N 36°55' E 024°38'2222.1
2014-Jul-17 14:33N 36°39' E 024°57'2221.9
2014-Jul-17 13:33N 36°25' E 025°18'2 1.8
2014-Jul-17 12:31N 36°24' E 025°20'2021.0
2014-Jul-17 11:33N 36°44' E 025°14'2121.3
2014-Jul-17 10:33N 37°05' E 025°19'1313.2
2014-Jul-17 09:34N 37°18' E 025°19'1010.3
2014-Jul-17 08:33N 37°28' E 025°18'2221.0
2014-Jul-17 07:29N 37°32' E 024°50'2221.6
2014-Jul-17 06:30N 37°31' E 024°23'4020.5
2014-Jul-17 04:33N 37°48' E 023°38'8 8.3
2014-Jul-17 03:33N 37°57' E 023°39'0 0.0
2014-Jul-17 02:33N 37°57' E 023°39'0 0.0
2014-Jul-17 01:33N 37°57' E 023°39'0 0.0
2014-Jul-17 00:33N 37°57' E 023°39'0 0.0
2014-Jul-16 23:34N 37°57' E 023°39'0 0.0
2014-Jul-16 22:33N 37°57' E 023°39'0 0.0
2014-Jul-16 21:33N 37°57' E 023°39'1414.4
2014-Jul-16 20:34N 37°43' E 023°45'3222.0
2014-Jul-16 19:05N 37°31' E 024°23'1522.1
2014-Jul-16 18:23N 37°31' E 024°42'1822.0
2014-Jul-16 17:33N 37°30' E 025°05'1111.2
2014-Jul-16 16:33N 37°24' E 025°17'1817.9
2014-Jul-16 15:34N 37°06' E 025°22'1919.1
2014-Jul-16 14:33N 36°48' E 025°15'2222.0
2014-Jul-16 13:33N 36°26' E 025°19'4 3.9
2014-Jul-16 12:33N 36°24' E 025°22'2120.9
2014-Jul-16 11:34N 36°43' E 025°14'2221.8
2014-Jul-16 10:33N 37°05' E 025°19'1212.0
2014-Jul-16 09:33N 37°17' E 025°19'1111.1
2014-Jul-16 08:33N 37°28' E 025°19'2421.3
2014-Jul-16 07:26N 37°31' E 024°49'2521.9
2014-Jul-16 06:17N 37°31' E 024°17'3620.9
2014-Jul-16 04:34N 37°49' E 023°37'8 7.7
2014-Jul-16 03:33N 37°57' E 023°39'0 0.0
2014-Jul-16 02:33N 37°57' E 023°39'0 0.0
2014-Jul-16 01:33N 37°57' E 023°39'0 0.0
2014-Jul-16 00:33N 37°57' E 023°39'0 0.0
2014-Jul-15 23:32N 37°57' E 023°39'0 0.0
2014-Jul-15 22:33N 37°57' E 023°39'0 0.0
2014-Jul-15 21:33N 37°57' E 023°39'0 0.0
2014-Jul-15 20:33N 37°57' E 023°39'3 3.4
2014-Jul-15 19:33N 37°53' E 023°38'4320.9
2014-Jul-15 17:31N 37°31' E 024°24'2624.3
2014-Jul-15 16:27N 37°31' E 024°57'1820.3
2014-Jul-15 15:34N 37°28' E 025°19'2121.3
2014-Jul-15 14:33N 37°07' E 025°22'1110.7
2014-Jul-15 13:33N 36°57' E 025°16'1515.3
2014-Jul-15 12:33N 36°42' E 025°16'2019.9
2014-Jul-15 11:33N 36°23' E 025°26'1413.9
2014-Jul-15 10:33N 36°35' E 025°17'2626.4
2014-Jul-15 09:33N 37°02' E 025°18'1817.7
2014-Jul-15 08:33N 37°19' E 025°18'1212.5
2014-Jul-15 07:33N 37°30' E 025°10'2726.8
2014-Jul-15 06:33N 37°32' E 024°36'3926.3
2014-Jul-15 05:03N 37°39' E 023°47'1224.9
2014-Jul-15 04:34N 37°49' E 023°38'8 8.1
2014-Jul-15 03:34N 37°57' E 023°39'0 0.0
2014-Jul-15 02:34N 37°57' E 023°39'0 0.0
2014-Jul-15 01:34N 37°57' E 023°39'0 0.0
2014-Jul-15 00:34N 37°57' E 023°39'0 0.0
2014-Jul-14 23:34N 37°57' E 023°39'0 0.0
2014-Jul-14 22:34N 37°57' E 023°39'0 0.0
2014-Jul-14 21:34N 37°57' E 023°39'1 1.4
2014-Jul-14 20:33N 37°56' E 023°37'2018.5
2014-Jul-14 19:30N 37°39' E 023°51'3718.7
2014-Jul-14 17:32N 37°31' E 024°37'2020.1
2014-Jul-14 16:33N 37°30' E 025°02'1313.4
2014-Jul-14 15:33N 37°27' E 025°18'2019.9
2014-Jul-14 14:33N 37°08' E 025°22'1818.4
2014-Jul-14 13:33N 36°50' E 025°15'1919.0
2014-Jul-14 12:34N 36°31' E 025°17'9 8.6
2014-Jul-14 11:33N 36°23' E 025°22'2424.1
2014-Jul-14 10:34N 36°47' E 025°15'2120.4
2014-Jul-14 09:33N 37°06' E 025°22'2221.7
2014-Jul-14 08:33N 37°28' E 025°19'9 9.0
2014-Jul-14 07:33N 37°32' E 025°09'2525.0
2014-Jul-14 06:33N 37°32' E 024°38'2625.8
2014-Jul-14 05:32N 37°35' E 024°05'2525.0
2014-Jul-14 04:33N 37°47' E 023°38'3 0.4
2014-Jul-13 19:33N 37°46' E 023°42'4924.5
2014-Jul-13 17:32N 37°31' E 024°41'2626.0
2014-Jul-13 16:33N 37°28' E 025°14'1111.7
2014-Jul-13 15:34N 37°18' E 025°19'1716.5
2014-Jul-13 14:33N 37°01' E 025°18'1817.8
2014-Jul-13 13:33N 36°43' E 025°16'2221.5
2014-Jul-13 12:33N 36°23' E 025°26'1413.5
2014-Jul-13 11:33N 36°35' E 025°18'  

Dump ship's entire track history